Scott, Indiana
Current Conditions -  °F | °C
As of 10:55 PM on Saturday 22 Nov 2014 (Local Time) from KANQ Reporting Station
Overcast Overcast  
Wind Chill: 50°   Ceiling: 2800
Heat Index: 50°   Visibility: 10mi
Dew Point: 43°   Wind: 9mph
Humidity: 76%   Direction: 230°SW
Pressure: 29.95"   Gusts: NA
Location:  41.6594°N, 85.0055°W
Report Text: KANQ 230355Z AUTO 23008KT 10SM OVC028 10/06 A2995 RMK
Loading
Personal Weather Stations






























Interactive Weather Map New forecast layout! Learn more

10-Day Weather Forecast

Advertisements
Track Severe Weather on mobile